createdAt,value
2022-11-16T00:01:35.977Z,7.60
2022-11-16T00:04:05.774Z,5.88
2022-11-16T00:06:39.412Z,6.90
2022-11-16T00:09:30.265Z,3.38
2022-11-16T00:12:02.303Z,2.35
2022-11-16T00:14:33.104Z,2.22
2022-11-16T00:17:02.837Z,9.35
2022-11-16T00:19:44.784Z,5.60
2022-11-16T00:22:17.060Z,4.38
2022-11-16T00:24:46.613Z,4.50
2022-11-16T00:27:24.423Z,2.45
2022-11-16T00:29:54.720Z,3.28
2022-11-16T00:32:24.326Z,2.75
2022-11-16T00:35:03.544Z,3.80
2022-11-16T00:37:35.748Z,4.57
2022-11-16T00:40:05.908Z,5.93
2022-11-16T00:42:37.233Z,4.47
2022-11-16T00:45:09.349Z,4.53
2022-11-16T00:47:41.532Z,3.40
2022-11-16T00:50:10.870Z,1.33
2022-11-16T00:52:40.429Z,6.50
2022-11-16T00:55:10.557Z,3.50
2022-11-16T00:57:42.393Z,2.50
2022-11-16T01:00:13.948Z,2.65
2022-11-16T01:02:43.294Z,0.70
2022-11-16T01:05:13.418Z,3.13
2022-11-16T01:07:44.835Z,2.95
2022-11-16T01:10:14.997Z,7.95
2022-11-16T01:12:45.663Z,0.50
2022-11-16T01:15:19.184Z,1.42
2022-11-16T01:17:51.115Z,1.30
2022-11-16T01:20:21.470Z,0.93
2022-11-16T01:23:03.736Z,3.33
2022-11-16T01:25:33.460Z,1.33
2022-11-16T01:28:04.301Z,1.45
2022-11-16T01:30:50.201Z,2.13
2022-11-16T01:33:19.682Z,1.02
2022-11-16T01:35:49.430Z,1.55
2022-11-16T01:38:19.761Z,0.60
2022-11-16T01:40:50.223Z,2.97
2022-11-16T01:43:28.998Z,1.83
2022-11-16T01:46:05.541Z,4.72
2022-11-16T01:48:43.686Z,1.05
2022-11-16T01:51:13.557Z,2.33
2022-11-16T01:53:48.789Z,3.15
2022-11-16T01:56:20.944Z,4.53
2022-11-16T01:59:04.602Z,5.25
2022-11-16T02:01:43.345Z,3.78
2022-11-16T02:04:13.361Z,5.32
2022-11-16T02:06:59.349Z,4.13
2022-11-16T02:09:54.866Z,3.17
2022-11-16T02:12:59.190Z,1.83
2022-11-16T02:15:42.375Z,1.95
2022-11-16T02:18:26.681Z,2.65
2022-11-16T02:21:07.187Z,1.92
2022-11-16T02:23:55.702Z,5.20
2022-11-16T02:26:34.775Z,4.20
2022-11-16T02:29:18.148Z,1.40
2022-11-16T02:31:50.044Z,6.07
2022-11-16T02:36:52.117Z,2.13
2022-11-16T02:39:26.777Z,4.20
2022-11-16T02:41:56.998Z,6.75
2022-11-16T02:44:35.601Z,5.57
2022-11-16T02:47:07.234Z,7.80
2022-11-16T02:49:41.237Z,1.55
2022-11-16T02:52:13.153Z,4.43
2022-11-16T02:54:45.664Z,3.50
2022-11-16T02:57:36.388Z,4.55
2022-11-16T03:00:08.666Z,5.80
2022-11-16T03:02:48.790Z,6.28
2022-11-16T03:05:32.119Z,4.45
2022-11-16T03:08:16.297Z,4.50
2022-11-16T03:11:07.801Z,2.05
2022-11-16T03:13:52.851Z,3.28
2022-11-16T03:16:25.848Z,2.65
2022-11-16T03:18:58.550Z,5.65
2022-11-16T03:21:34.871Z,2.55
2022-11-16T03:24:08.593Z,4.38
2022-11-16T03:26:46.822Z,2.70
2022-11-16T03:29:46.576Z,3.20
2022-11-16T03:32:31.266Z,2.92
2022-11-16T03:35:02.465Z,4.70
2022-11-16T03:37:32.093Z,3.17
2022-11-16T03:40:03.272Z,2.03
2022-11-16T03:42:35.158Z,3.00
2022-11-16T03:45:10.405Z,8.20
2022-11-16T03:47:42.346Z,2.88
2022-11-16T03:50:15.007Z,3.85
2022-11-16T03:52:47.177Z,6.30
2022-11-16T03:55:19.090Z,4.97
2022-11-16T03:57:51.801Z,6.38
2022-11-16T04:00:27.122Z,4.47
2022-11-16T04:03:02.326Z,2.88
2022-11-16T04:05:49.113Z,2.42
2022-11-16T04:08:36.877Z,1.08
2022-11-16T04:11:28.825Z,1.25
2022-11-16T04:14:15.534Z,2.08
2022-11-16T04:17:03.533Z,2.03
2022-11-16T04:19:56.737Z,5.43
2022-11-16T04:22:48.461Z,1.45
2022-11-16T04:25:24.787Z,1.77
2022-11-16T04:28:12.649Z,2.90
2022-11-16T04:31:05.765Z,2.20
2022-11-16T04:33:54.238Z,2.97
2022-11-16T04:36:42.299Z,3.40
2022-11-16T04:39:18.409Z,1.15
2022-11-16T04:42:12.730Z,1.45
2022-11-16T04:45:02.211Z,3.15
2022-11-16T04:47:39.244Z,0.25
2022-11-16T04:50:09.532Z,0.50
2022-11-16T04:52:43.100Z,1.85
2022-11-16T04:55:16.411Z,1.80
2022-11-16T04:57:50.680Z,2.28
2022-11-16T05:00:26.566Z,2.05
2022-11-16T05:03:01.203Z,2.95
2022-11-16T05:05:33.498Z,2.30
2022-11-16T05:08:05.069Z,2.95
2022-11-16T05:10:36.231Z,1.63
2022-11-16T05:13:13.742Z,1.85
2022-11-16T05:15:42.872Z,1.00
2022-11-16T05:18:13.156Z,2.70
2022-11-16T05:21:00.474Z,1.55
2022-11-16T05:23:57.245Z,1.73
2022-11-16T05:26:39.133Z,2.90
2022-11-16T05:29:11.175Z,5.38
2022-11-16T05:31:45.482Z,3.45
2022-11-16T05:34:33.581Z,2.20
2022-11-16T05:37:08.131Z,4.03
2022-11-16T05:39:39.291Z,0.68
2022-11-16T05:42:12.390Z,0.52
2022-11-16T05:44:49.714Z,4.13
2022-11-16T05:47:20.131Z,0.98
2022-11-16T05:49:56.177Z,1.35
2022-11-16T05:52:30.184Z,3.03
2022-11-16T05:55:06.939Z,3.45
2022-11-16T05:57:47.606Z,5.90
2022-11-16T06:00:18.908Z,2.42
2022-11-16T06:02:52.698Z,0.85
2022-11-16T06:05:26.576Z,1.80
2022-11-16T06:07:57.039Z,6.82
2022-11-16T06:10:34.543Z,4.25
2022-11-16T06:13:05.183Z,5.10
2022-11-16T06:15:38.733Z,2.83
2022-11-16T06:18:10.321Z,4.82
2022-11-16T06:20:40.299Z,6.18
2022-11-16T06:23:10.019Z,4.13
2022-11-16T06:25:47.412Z,2.42
2022-11-16T06:28:17.403Z,5.35
2022-11-16T06:30:47.255Z,6.32
2022-11-16T06:33:21.529Z,5.57
2022-11-16T06:36:00.122Z,2.17
2022-11-16T06:38:42.656Z,1.80
2022-11-16T06:41:20.738Z,3.92
2022-11-16T06:44:03.904Z,3.78
2022-11-16T06:46:39.215Z,2.65
2022-11-16T06:49:12.796Z,3.33
2022-11-16T06:51:48.797Z,1.95
2022-11-16T06:54:19.021Z,1.92
2022-11-16T06:56:50.694Z,3.33
2022-11-16T07:01:52.045Z,4.30
2022-11-16T07:04:23.281Z,2.58
2022-11-16T07:07:01.758Z,3.28
2022-11-16T07:09:31.442Z,3.03
2022-11-16T07:12:03.053Z,3.33
2022-11-16T07:14:38.248Z,4.88
2022-11-16T07:17:16.563Z,1.58
2022-11-16T07:19:48.556Z,2.78
2022-11-16T07:22:21.543Z,2.90
2022-11-16T07:24:53.327Z,3.20
2022-11-16T07:27:33.230Z,2.83
2022-11-16T07:30:09.256Z,3.70
2022-11-16T07:33:07.262Z,3.28
2022-11-16T07:36:14.179Z,5.75
2022-11-16T07:38:54.292Z,1.83
2022-11-16T07:41:25.945Z,4.57
2022-11-16T07:44:23.912Z,2.25
2022-11-16T07:47:06.380Z,4.28
2022-11-16T07:49:38.012Z,4.13
2022-11-16T07:52:24.578Z,2.38
2022-11-16T07:55:11.770Z,1.80
2022-11-16T07:57:46.796Z,3.60
2022-11-16T08:00:23.314Z,6.90
2022-11-16T08:03:08.479Z,2.17
2022-11-16T08:05:40.827Z,5.15
2022-11-16T08:10:42.880Z,1.90
2022-11-16T08:13:13.605Z,1.52
2022-11-16T08:18:15.654Z,2.53
2022-11-16T08:20:45.244Z,2.40
2022-11-16T08:23:15.215Z,5.03
2022-11-16T08:25:44.853Z,2.65
2022-11-16T08:28:20.017Z,2.45
2022-11-16T08:30:53.923Z,2.20
2022-11-16T08:33:28.168Z,5.00
2022-11-16T08:36:01.499Z,1.92
2022-11-16T08:38:33.943Z,4.80
2022-11-16T08:41:04.008Z,5.60
2022-11-16T08:43:33.934Z,5.40
2022-11-16T08:46:03.891Z,1.55
2022-11-16T08:48:38.081Z,3.17
2022-11-16T08:51:18.421Z,3.50
2022-11-16T08:53:56.725Z,2.47
2022-11-16T08:56:30.849Z,5.15
2022-11-16T08:59:00.944Z,2.97
2022-11-16T09:01:32.585Z,1.63
2022-11-16T09:04:03.460Z,2.35
2022-11-16T09:06:32.441Z,4.40
2022-11-16T09:09:01.864Z,2.20
2022-11-16T09:11:32.738Z,2.60
2022-11-16T09:14:02.276Z,2.33
2022-11-16T09:16:31.330Z,3.13
2022-11-16T09:19:00.829Z,0.50
2022-11-16T09:21:32.592Z,2.72
2022-11-16T09:24:01.805Z,1.75
2022-11-16T09:26:30.746Z,2.35
2022-11-16T09:29:04.517Z,3.60
2022-11-16T09:31:37.217Z,2.97
2022-11-16T09:34:06.537Z,1.30
2022-11-16T09:36:37.281Z,1.63
2022-11-16T09:42:00.487Z,2.55
2022-11-16T09:44:45.264Z,4.18
2022-11-16T09:47:17.093Z,1.98
2022-11-16T09:50:01.683Z,3.35
2022-11-16T09:52:35.094Z,0.75
2022-11-16T09:57:36.286Z,1.63
2022-11-16T10:02:56.820Z,2.42
2022-11-16T10:05:30.208Z,2.97
2022-11-16T10:08:04.851Z,2.25
2022-11-16T10:10:39.000Z,5.97
2022-11-16T10:13:13.956Z,2.20
2022-11-16T10:15:50.357Z,1.65
2022-11-16T10:18:28.206Z,3.78
2022-11-16T10:21:06.416Z,1.65
2022-11-16T10:23:42.987Z,5.00
2022-11-16T10:26:24.002Z,0.65
2022-11-16T10:29:13.296Z,3.88
2022-11-16T10:31:59.809Z,2.15
2022-11-16T10:34:35.353Z,1.77
2022-11-16T10:37:07.132Z,2.67
2022-11-16T10:39:47.107Z,5.18
2022-11-16T10:42:19.331Z,5.13
2022-11-16T10:44:49.830Z,4.43
2022-11-16T10:47:21.723Z,6.00
2022-11-16T10:49:54.293Z,2.33
2022-11-16T10:52:31.017Z,2.53
2022-11-16T10:55:01.490Z,2.45
2022-11-16T10:57:59.409Z,4.88
2022-11-16T11:00:39.897Z,2.33
2022-11-16T11:03:15.680Z,2.90
2022-11-16T11:05:50.010Z,4.57
2022-11-16T11:08:27.961Z,3.25
2022-11-16T11:11:22.833Z,4.97
2022-11-16T11:14:13.142Z,4.60
2022-11-16T11:16:45.938Z,4.10
2022-11-16T11:19:30.081Z,4.35
2022-11-16T11:22:00.652Z,6.15
2022-11-16T11:24:44.583Z,4.22
2022-11-16T11:27:16.085Z,5.38
2022-11-16T11:29:46.883Z,2.25
2022-11-16T11:32:23.570Z,2.60
2022-11-16T11:34:54.696Z,7.32
2022-11-16T11:37:30.444Z,4.53
2022-11-16T11:40:24.117Z,4.15
2022-11-16T11:42:58.382Z,2.47
2022-11-16T11:45:33.160Z,1.77
2022-11-16T11:48:16.643Z,1.48
2022-11-16T11:50:52.020Z,4.93
2022-11-16T11:53:32.526Z,2.45
2022-11-16T11:56:06.065Z,3.20
2022-11-16T11:58:41.254Z,2.47
2022-11-16T12:01:25.848Z,5.53
2022-11-16T12:04:06.546Z,2.35
2022-11-16T12:06:42.609Z,5.40
2022-11-16T12:09:25.968Z,4.18
2022-11-16T12:12:11.793Z,2.63
2022-11-16T12:14:58.437Z,2.95
2022-11-16T12:17:34.876Z,3.63
2022-11-16T12:20:24.860Z,3.40
2022-11-16T12:23:15.880Z,3.60
2022-11-16T12:25:47.681Z,3.75
2022-11-16T12:28:23.027Z,4.07
2022-11-16T12:30:59.176Z,6.13
2022-11-16T12:33:34.435Z,3.90
2022-11-16T12:36:10.374Z,5.28
2022-11-16T12:38:57.142Z,4.57
2022-11-16T12:41:42.233Z,2.72
2022-11-16T12:44:12.960Z,8.00
2022-11-16T12:46:48.489Z,5.03
2022-11-16T12:49:42.093Z,4.47
2022-11-16T12:52:20.641Z,4.57
2022-11-16T12:58:04.217Z,4.13
2022-11-16T13:00:38.454Z,10.63
2022-11-16T13:03:16.815Z,4.03
2022-11-16T13:05:50.440Z,4.78
2022-11-16T13:08:26.710Z,4.93
2022-11-16T13:11:06.532Z,4.82
2022-11-16T13:13:38.246Z,6.65
2022-11-16T13:16:08.793Z,9.82
2022-11-16T13:18:44.150Z,15.82
2022-11-16T13:21:18.936Z,8.20
2022-11-16T13:23:53.835Z,7.65
2022-11-16T13:26:27.890Z,7.45
2022-11-16T13:29:01.391Z,10.30
2022-11-16T13:31:36.203Z,4.63
2022-11-16T13:34:10.115Z,2.30
2022-11-16T13:36:47.898Z,3.17
2022-11-16T13:39:25.202Z,4.20
2022-11-16T13:42:26.151Z,6.45
2022-11-16T13:45:07.361Z,3.58
2022-11-16T13:47:40.627Z,2.38
2022-11-16T13:50:19.739Z,2.35
2022-11-16T13:55:42.521Z,2.40
2022-11-16T13:58:13.534Z,2.88
2022-11-16T14:00:44.236Z,2.95
2022-11-16T14:03:39.804Z,4.63
2022-11-16T14:06:31.204Z,2.72
2022-11-16T14:09:01.028Z,4.05
2022-11-16T14:11:35.381Z,3.47
2022-11-16T14:14:08.898Z,3.90
2022-11-16T14:16:56.511Z,4.68
2022-11-16T14:19:55.343Z,3.83
2022-11-16T14:22:39.003Z,7.40
2022-11-16T14:25:18.860Z,5.65
2022-11-16T14:27:52.427Z,5.47
2022-11-16T14:30:24.114Z,4.38
2022-11-16T14:32:54.676Z,6.75
2022-11-16T14:35:31.256Z,5.35
2022-11-16T14:38:03.190Z,10.75
2022-11-16T14:40:45.149Z,7.70
2022-11-16T14:43:23.617Z,15.38
2022-11-16T14:45:59.782Z,8.15
2022-11-16T14:48:35.215Z,7.05
2022-11-16T14:51:12.689Z,6.60
2022-11-16T14:53:46.828Z,7.32
2022-11-16T14:56:17.581Z,5.95
2022-11-16T14:58:55.284Z,6.50
2022-11-16T15:01:26.687Z,6.90
2022-11-16T15:03:57.804Z,10.77
2022-11-16T15:06:28.339Z,4.00
2022-11-16T15:09:01.598Z,10.50
2022-11-16T15:11:46.193Z,5.85
2022-11-16T15:14:17.971Z,7.82
2022-11-16T15:16:51.664Z,4.00
2022-11-16T15:19:21.768Z,9.30
2022-11-16T15:21:55.441Z,10.77
2022-11-16T15:24:31.122Z,8.65
2022-11-16T15:27:12.137Z,8.63
2022-11-16T15:29:41.639Z,6.25
2022-11-16T15:32:15.281Z,9.82
2022-11-16T15:34:44.572Z,13.82
2022-11-16T15:37:15.465Z,9.93
2022-11-16T15:39:49.144Z,9.25
2022-11-16T15:42:20.016Z,11.32
2022-11-16T15:44:49.352Z,8.32
2022-11-16T15:47:22.410Z,8.50
2022-11-16T15:49:55.986Z,10.48
2022-11-16T15:52:48.208Z,5.35
2022-11-16T15:55:38.833Z,16.58
2022-11-16T15:58:16.500Z,11.23
2022-11-16T16:00:49.582Z,7.85
2022-11-16T16:03:23.621Z,7.43
2022-11-16T16:06:05.030Z,11.45
2022-11-16T16:08:35.757Z,14.05
2022-11-16T16:11:08.374Z,9.18
2022-11-16T16:13:41.681Z,5.22
2022-11-16T16:16:28.808Z,11.85
2022-11-16T16:19:02.590Z,14.68
2022-11-16T16:21:47.164Z,12.25
2022-11-16T16:24:32.310Z,16.10
2022-11-16T16:27:03.089Z,15.95
2022-11-16T16:29:37.181Z,14.30
2022-11-16T16:32:07.578Z,9.95
2022-11-16T16:34:40.891Z,12.82
2022-11-16T16:37:28.552Z,19.77
2022-11-16T16:40:04.811Z,20.05
2022-11-16T16:42:39.740Z,22.08
2022-11-16T16:45:14.422Z,12.95
2022-11-16T16:47:43.452Z,27.52
2022-11-16T16:50:12.984Z,16.50
2022-11-16T16:52:52.698Z,16.63
2022-11-16T16:55:22.389Z,12.38
2022-11-16T16:57:54.109Z,13.63
2022-11-16T17:00:27.133Z,18.13
2022-11-16T17:02:58.557Z,14.90
2022-11-16T17:05:28.247Z,14.80
2022-11-16T17:07:58.538Z,12.10
2022-11-16T17:10:28.226Z,15.45
2022-11-16T17:13:03.358Z,15.15
2022-11-16T17:15:33.145Z,11.23
2022-11-16T17:18:11.241Z,10.50
2022-11-16T17:20:45.462Z,12.00
2022-11-16T17:23:15.374Z,11.23
2022-11-16T17:25:45.367Z,13.93
2022-11-16T17:28:16.428Z,12.40
2022-11-16T17:30:45.685Z,11.93
2022-11-16T17:33:20.737Z,12.88
2022-11-16T17:36:00.592Z,19.15
2022-11-16T17:38:44.609Z,22.33
2022-11-16T17:41:18.301Z,15.77
2022-11-16T17:43:49.753Z,16.13
2022-11-16T17:46:23.709Z,6.53
2022-11-16T17:48:53.149Z,15.93
2022-11-16T17:51:27.354Z,22.23
2022-11-16T17:54:01.344Z,23.15
2022-11-16T17:56:35.451Z,25.95
2022-11-16T17:59:06.561Z,11.15
2022-11-16T18:01:36.980Z,15.27
2022-11-16T18:04:10.549Z,11.65
2022-11-16T18:06:40.117Z,8.98
2022-11-16T18:09:09.155Z,11.95
2022-11-16T18:11:39.782Z,9.93
2022-11-16T18:14:10.689Z,15.50
2022-11-16T18:16:43.424Z,16.95
2022-11-16T18:19:19.354Z,11.63
2022-11-16T18:21:51.004Z,8.55
2022-11-16T18:24:23.549Z,12.63
2022-11-16T18:26:56.375Z,10.45
2022-11-16T18:32:03.197Z,9.85
2022-11-16T18:34:32.326Z,8.75
2022-11-16T18:37:07.768Z,12.73
2022-11-16T18:39:39.718Z,9.63
2022-11-16T18:42:12.448Z,8.48
2022-11-16T18:44:47.550Z,5.40
2022-11-16T18:47:18.702Z,6.75
2022-11-16T18:49:53.968Z,5.47
2022-11-16T18:52:24.018Z,4.68
2022-11-16T18:54:55.476Z,10.13
2022-11-16T18:57:24.724Z,5.93
2022-11-16T18:59:55.188Z,5.20
2022-11-16T19:02:26.142Z,6.25
2022-11-16T19:05:00.928Z,8.45
2022-11-16T19:07:31.219Z,5.75
2022-11-16T19:10:00.349Z,4.55
2022-11-16T19:12:30.017Z,9.50
2022-11-16T19:15:00.111Z,4.80
2022-11-16T19:17:34.378Z,7.03
2022-11-16T19:20:04.890Z,3.38
2022-11-16T19:22:37.009Z,3.88
2022-11-16T19:25:12.235Z,5.55
2022-11-16T19:27:41.665Z,6.95
2022-11-16T19:30:11.142Z,5.80
2022-11-16T19:32:51.598Z,8.60
2022-11-16T19:35:21.879Z,0.85
2022-11-16T19:37:53.294Z,3.97
2022-11-16T19:40:29.765Z,8.77
2022-11-16T19:42:59.500Z,7.47
2022-11-16T19:45:28.847Z,4.25
2022-11-16T19:48:03.381Z,7.10
2022-11-16T19:50:33.620Z,8.50
2022-11-16T19:53:03.845Z,3.15
2022-11-16T19:55:54.167Z,3.17
2022-11-16T19:58:23.858Z,10.88
2022-11-16T20:00:54.316Z,11.23
2022-11-16T20:03:28.982Z,2.42
2022-11-16T20:06:13.748Z,3.97
2022-11-16T20:08:43.987Z,5.00
2022-11-16T20:11:15.813Z,4.75
2022-11-16T20:13:53.979Z,5.90
2022-11-16T20:16:25.561Z,3.20
2022-11-16T20:18:59.954Z,4.70
2022-11-16T20:21:30.140Z,6.65
2022-11-16T20:24:06.048Z,7.05
2022-11-16T20:26:37.449Z,5.10
2022-11-16T20:29:13.018Z,5.25
2022-11-16T20:31:43.460Z,7.30
2022-11-16T20:34:14.980Z,8.70
2022-11-16T20:36:45.183Z,4.75
2022-11-16T20:39:15.724Z,8.38
2022-11-16T20:41:49.332Z,4.97
2022-11-16T20:44:22.459Z,2.72
2022-11-16T20:46:53.235Z,2.47
2022-11-16T20:49:23.956Z,4.95
2022-11-16T20:51:53.643Z,4.88
2022-11-16T20:54:24.520Z,2.42
2022-11-16T20:56:53.941Z,1.98
2022-11-16T20:59:25.741Z,2.28
2022-11-16T21:01:55.811Z,6.57
2022-11-16T21:04:27.436Z,1.58
2022-11-16T21:06:56.854Z,4.20
2022-11-16T21:09:49.457Z,5.53
2022-11-16T21:12:41.492Z,3.05
2022-11-16T21:15:15.506Z,6.05
2022-11-16T21:17:47.884Z,9.05
2022-11-16T21:20:48.114Z,6.13
2022-11-16T21:23:19.628Z,4.18
2022-11-16T21:25:50.763Z,7.47
2022-11-16T21:28:25.527Z,8.30
2022-11-16T21:31:04.706Z,13.85
2022-11-16T21:33:34.476Z,4.93
2022-11-16T21:36:05.784Z,5.10
2022-11-16T21:38:47.821Z,4.88
2022-11-16T21:41:21.885Z,11.07
2022-11-16T21:43:51.466Z,9.27
2022-11-16T21:46:22.989Z,10.45
2022-11-16T21:48:55.515Z,5.90
2022-11-16T21:51:32.013Z,8.45
2022-11-16T21:54:04.247Z,8.95
2022-11-16T21:56:34.910Z,8.10
2022-11-16T21:59:06.240Z,8.32
2022-11-16T22:01:50.003Z,15.20
2022-11-16T22:04:40.547Z,11.40
2022-11-16T22:07:43.399Z,8.48
2022-11-16T22:10:15.510Z,13.50
2022-11-16T22:15:19.004Z,50.95
2022-11-16T22:17:48.763Z,20.92
2022-11-16T22:20:23.304Z,23.70
2022-11-16T22:22:52.921Z,14.02
2022-11-16T22:25:28.763Z,19.88
2022-11-16T22:30:52.176Z,19.88
2022-11-16T22:33:21.754Z,21.20
2022-11-16T22:36:04.981Z,24.60
2022-11-16T22:38:36.720Z,33.95
2022-11-16T22:41:21.545Z,28.90
2022-11-16T22:43:55.505Z,31.45
2022-11-16T22:46:27.140Z,28.33
2022-11-16T22:49:11.704Z,33.35
2022-11-16T22:51:44.453Z,34.00
2022-11-16T22:54:28.346Z,36.85
2022-11-16T22:57:00.478Z,29.60
2022-11-16T22:59:31.179Z,54.08
2022-11-16T23:02:01.275Z,36.67
2022-11-16T23:04:32.213Z,29.05
2022-11-16T23:07:06.753Z,73.70
2022-11-16T23:09:37.168Z,33.47
2022-11-16T23:12:34.015Z,37.78
2022-11-16T23:15:25.200Z,38.80
2022-11-16T23:17:55.666Z,45.30
2022-11-16T23:20:47.112Z,34.95
2022-11-16T23:23:36.349Z,45.72
2022-11-16T23:26:26.527Z,31.98
2022-11-16T23:29:00.085Z,40.72
2022-11-16T23:31:31.903Z,31.08
2022-11-16T23:34:16.138Z,30.42
2022-11-16T23:36:46.435Z,30.83
2022-11-16T23:39:29.728Z,28.48
2022-11-16T23:42:21.700Z,32.72
2022-11-16T23:44:56.071Z,25.85
2022-11-16T23:47:25.805Z,30.55
2022-11-16T23:49:55.544Z,36.20
2022-11-16T23:52:25.265Z,25.08
2022-11-16T23:54:54.666Z,28.15
2022-11-16T23:57:29.096Z,27.23
